sensor_id;sensor_type;location;lat;lon;timestamp;temperature;humidity
70421;SHT31;57848;51.938;15.520;2023-09-19T00:00:01;17.58;94.99
70421;SHT31;57848;51.938;15.520;2023-09-19T00:02:26;17.56;95.19
70421;SHT31;57848;51.938;15.520;2023-09-19T00:04:52;17.55;95.37
70421;SHT31;57848;51.938;15.520;2023-09-19T00:07:17;17.50;95.38
70421;SHT31;57848;51.938;15.520;2023-09-19T00:09:42;17.48;95.65
70421;SHT31;57848;51.938;15.520;2023-09-19T00:12:09;17.53;96.02
70421;SHT31;57848;51.938;15.520;2023-09-19T00:14:35;17.42;95.65
70421;SHT31;57848;51.938;15.520;2023-09-19T00:17:01;17.42;95.49
70421;SHT31;57848;51.938;15.520;2023-09-19T00:19:36;17.42;95.90
70421;SHT31;57848;51.938;15.520;2023-09-19T00:22:02;17.34;95.96
70421;SHT31;57848;51.938;15.520;2023-09-19T00:24:28;17.31;96.05
70421;SHT31;57848;51.938;15.520;2023-09-19T00:26:53;17.29;95.92
70421;SHT31;57848;51.938;15.520;2023-09-19T00:29:21;17.22;96.47
70421;SHT31;57848;51.938;15.520;2023-09-19T00:31:46;17.22;96.47
70421;SHT31;57848;51.938;15.520;2023-09-19T00:34:11;17.21;96.45
70421;SHT31;57848;51.938;15.520;2023-09-19T00:36:37;17.18;96.73
70421;SHT31;57848;51.938;15.520;2023-09-19T00:39:06;17.17;96.69
70421;SHT31;57848;51.938;15.520;2023-09-19T00:41:32;17.12;97.02
70421;SHT31;57848;51.938;15.520;2023-09-19T00:43:57;17.04;97.25
70421;SHT31;57848;51.938;15.520;2023-09-19T00:46:25;17.06;97.09
70421;SHT31;57848;51.938;15.520;2023-09-19T00:48:50;17.17;97.00
70421;SHT31;57848;51.938;15.520;2023-09-19T00:51:16;17.08;97.15
70421;SHT31;57848;51.938;15.520;2023-09-19T00:53:45;17.08;97.04
70421;SHT31;57848;51.938;15.520;2023-09-19T00:56:11;17.06;96.96
70421;SHT31;57848;51.938;15.520;2023-09-19T00:58:37;17.04;97.11
70421;SHT31;57848;51.938;15.520;2023-09-19T01:01:04;17.03;97.07
70421;SHT31;57848;51.938;15.520;2023-09-19T01:03:34;17.01;97.34
70421;SHT31;57848;51.938;15.520;2023-09-19T01:05:59;17.01;97.35
70421;SHT31;57848;51.938;15.520;2023-09-19T01:08:28;17.04;97.12
70421;SHT31;57848;51.938;15.520;2023-09-19T01:16:35;17.00;97.23
70421;SHT31;57848;51.938;15.520;2023-09-19T01:19:30;17.04;96.90
70421;SHT31;57848;51.938;15.520;2023-09-19T01:22:39;17.01;96.53
70421;SHT31;57848;51.938;15.520;2023-09-19T01:25:49;17.00;96.68
70421;SHT31;57848;51.938;15.520;2023-09-19T01:28:34;16.95;96.71
70421;SHT31;57848;51.938;15.520;2023-09-19T01:31:11;16.91;96.89
70421;SHT31;57848;51.938;15.520;2023-09-19T01:34:02;16.92;96.75
70421;SHT31;57848;51.938;15.520;2023-09-19T01:36:34;16.91;96.92
70421;SHT31;57848;51.938;15.520;2023-09-19T01:39:06;16.95;96.77
70421;SHT31;57848;51.938;15.520;2023-09-19T01:41:56;17.06;96.92
70421;SHT31;57848;51.938;15.520;2023-09-19T01:44:49;17.06;96.53
70421;SHT31;57848;51.938;15.520;2023-09-19T01:47:23;17.00;96.27
70421;SHT31;57848;51.938;15.520;2023-09-19T01:52:57;16.97;96.14
70421;SHT31;57848;51.938;15.520;2023-09-19T01:55:28;17.00;96.07
70421;SHT31;57848;51.938;15.520;2023-09-19T01:58:01;16.98;96.18
70421;SHT31;57848;51.938;15.520;2023-09-19T02:00:30;16.94;96.15
70421;SHT31;57848;51.938;15.520;2023-09-19T02:02:59;16.97;95.99
70421;SHT31;57848;51.938;15.520;2023-09-19T02:05:25;16.98;95.76
70421;SHT31;57848;51.938;15.520;2023-09-19T02:07:52;17.03;95.79
70421;SHT31;57848;51.938;15.520;2023-09-19T02:10:21;17.06;95.97
70421;SHT31;57848;51.938;15.520;2023-09-19T02:12:46;17.01;95.83
70421;SHT31;57848;51.938;15.520;2023-09-19T02:15:13;17.00;95.30
70421;SHT31;57848;51.938;15.520;2023-09-19T02:17:42;17.00;95.31
70421;SHT31;57848;51.938;15.520;2023-09-19T02:20:08;16.95;95.23
70421;SHT31;57848;51.938;15.520;2023-09-19T02:22:35;16.94;95.49
70421;SHT31;57848;51.938;15.520;2023-09-19T02:25:01;16.98;95.81
70421;SHT31;57848;51.938;15.520;2023-09-19T02:27:27;16.97;95.40
70421;SHT31;57848;51.938;15.520;2023-09-19T02:29:52;16.97;95.72
70421;SHT31;57848;51.938;15.520;2023-09-19T02:32:17;16.94;95.73
70421;SHT31;57848;51.938;15.520;2023-09-19T02:34:43;16.92;95.75
70421;SHT31;57848;51.938;15.520;2023-09-19T02:37:10;16.90;95.70
70421;SHT31;57848;51.938;15.520;2023-09-19T02:39:35;16.94;95.75
70421;SHT31;57848;51.938;15.520;2023-09-19T02:42:01;16.94;95.58
70421;SHT31;57848;51.938;15.520;2023-09-19T02:44:29;16.95;95.73
70421;SHT31;57848;51.938;15.520;2023-09-19T02:46:55;16.94;95.67
70421;SHT31;57848;51.938;15.520;2023-09-19T02:49:22;16.88;95.68
70421;SHT31;57848;51.938;15.520;2023-09-19T02:51:48;16.91;95.28
70421;SHT31;57848;51.938;15.520;2023-09-19T02:54:13;16.88;95.60
70421;SHT31;57848;51.938;15.520;2023-09-19T02:56:38;16.83;95.39
70421;SHT31;57848;51.938;15.520;2023-09-19T02:59:04;16.81;95.39
70421;SHT31;57848;51.938;15.520;2023-09-19T03:01:30;16.81;95.47
70421;SHT31;57848;51.938;15.520;2023-09-19T03:03:57;16.80;95.83
70421;SHT31;57848;51.938;15.520;2023-09-19T03:06:23;16.85;95.56
70421;SHT31;57848;51.938;15.520;2023-09-19T03:08:49;16.81;95.17
70421;SHT31;57848;51.938;15.520;2023-09-19T03:11:17;16.84;95.38
70421;SHT31;57848;51.938;15.520;2023-09-19T03:13:54;16.84;95.19
70421;SHT31;57848;51.938;15.520;2023-09-19T03:16:20;16.87;95.36
70421;SHT31;57848;51.938;15.520;2023-09-19T03:18:52;16.84;95.57
70421;SHT31;57848;51.938;15.520;2023-09-19T03:21:17;16.87;95.48
70421;SHT31;57848;51.938;15.520;2023-09-19T03:23:44;16.87;95.23
70421;SHT31;57848;51.938;15.520;2023-09-19T03:26:14;16.80;95.59
70421;SHT31;57848;51.938;15.520;2023-09-19T03:28:41;16.87;95.30
70421;SHT31;57848;51.938;15.520;2023-09-19T03:31:08;16.84;94.82
70421;SHT31;57848;51.938;15.520;2023-09-19T03:33:35;16.83;95.24
70421;SHT31;57848;51.938;15.520;2023-09-19T03:36:02;16.77;95.44
70421;SHT31;57848;51.938;15.520;2023-09-19T03:38:31;16.83;95.32
70421;SHT31;57848;51.938;15.520;2023-09-19T03:40:56;16.84;95.07
70421;SHT31;57848;51.938;15.520;2023-09-19T03:43:22;16.81;95.37
70421;SHT31;57848;51.938;15.520;2023-09-19T03:45:47;16.73;95.76
70421;SHT31;57848;51.938;15.520;2023-09-19T03:48:14;16.76;95.42
70421;SHT31;57848;51.938;15.520;2023-09-19T03:50:39;16.78;95.42
70421;SHT31;57848;51.938;15.520;2023-09-19T03:53:05;16.77;95.33
70421;SHT31;57848;51.938;15.520;2023-09-19T03:55:32;16.81;95.62
70421;SHT31;57848;51.938;15.520;2023-09-19T03:57:58;16.83;95.08
70421;SHT31;57848;51.938;15.520;2023-09-19T04:00:23;16.84;95.26
70421;SHT31;57848;51.938;15.520;2023-09-19T04:02:52;16.87;94.75
70421;SHT31;57848;51.938;15.520;2023-09-19T04:05:18;16.85;94.48
70421;SHT31;57848;51.938;15.520;2023-09-19T04:07:45;16.85;94.51
70421;SHT31;57848;51.938;15.520;2023-09-19T04:10:10;16.88;94.38
70421;SHT31;57848;51.938;15.520;2023-09-19T04:12:40;16.87;94.38
70421;SHT31;57848;51.938;15.520;2023-09-19T04:15:06;16.88;94.65
70421;SHT31;57848;51.938;15.520;2023-09-19T04:17:32;16.84;94.77
70421;SHT31;57848;51.938;15.520;2023-09-19T04:20:00;16.90;94.38
70421;SHT31;57848;51.938;15.520;2023-09-19T04:22:25;16.88;94.20
70421;SHT31;57848;51.938;15.520;2023-09-19T04:24:51;16.91;94.15
70421;SHT31;57848;51.938;15.520;2023-09-19T04:27:16;16.94;94.22
70421;SHT31;57848;51.938;15.520;2023-09-19T04:29:42;16.97;94.02
70421;SHT31;57848;51.938;15.520;2023-09-19T04:32:07;16.98;93.99
70421;SHT31;57848;51.938;15.520;2023-09-19T04:34:33;16.94;94.06
70421;SHT31;57848;51.938;15.520;2023-09-19T04:36:59;16.91;94.17
70421;SHT31;57848;51.938;15.520;2023-09-19T04:39:26;16.98;94.15
70421;SHT31;57848;51.938;15.520;2023-09-19T04:41:52;16.97;94.16
70421;SHT31;57848;51.938;15.520;2023-09-19T04:44:18;16.92;94.04
70421;SHT31;57848;51.938;15.520;2023-09-19T04:46:43;16.95;94.06
70421;SHT31;57848;51.938;15.520;2023-09-19T04:49:09;17.00;93.86
70421;SHT31;57848;51.938;15.520;2023-09-19T04:51:34;17.00;93.40
70421;SHT31;57848;51.938;15.520;2023-09-19T04:54:01;16.97;93.88
70421;SHT31;57848;51.938;15.520;2023-09-19T04:56:27;16.95;93.83
70421;SHT31;57848;51.938;15.520;2023-09-19T04:58:53;16.95;94.13
70421;SHT31;57848;51.938;15.520;2023-09-19T05:01:19;16.94;94.21
70421;SHT31;57848;51.938;15.520;2023-09-19T05:03:47;16.92;93.69
70421;SHT31;57848;51.938;15.520;2023-09-19T05:06:17;17.00;93.78
70421;SHT31;57848;51.938;15.520;2023-09-19T05:08:43;17.00;94.21
70421;SHT31;57848;51.938;15.520;2023-09-19T05:11:09;17.06;93.16
70421;SHT31;57848;51.938;15.520;2023-09-19T05:13:34;17.01;93.90
70421;SHT31;57848;51.938;15.520;2023-09-19T05:16:00;17.01;93.56
70421;SHT31;57848;51.938;15.520;2023-09-19T05:18:28;17.07;92.92
70421;SHT31;57848;51.938;15.520;2023-09-19T05:20:54;17.07;92.64
70421;SHT31;57848;51.938;15.520;2023-09-19T05:23:21;17.11;92.96
70421;SHT31;57848;51.938;15.520;2023-09-19T05:25:46;17.14;92.45
70421;SHT31;57848;51.938;15.520;2023-09-19T05:28:12;17.07;93.08
70421;SHT31;57848;51.938;15.520;2023-09-19T05:30:40;17.14;92.81
70421;SHT31;57848;51.938;15.520;2023-09-19T05:33:06;17.17;93.49
70421;SHT31;57848;51.938;15.520;2023-09-19T05:35:32;17.22;92.48
70421;SHT31;57848;51.938;15.520;2023-09-19T05:37:58;17.15;93.14
70421;SHT31;57848;51.938;15.520;2023-09-19T05:40:24;17.18;93.27
70421;SHT31;57848;51.938;15.520;2023-09-19T05:42:50;17.18;92.41
70421;SHT31;57848;51.938;15.520;2023-09-19T05:45:18;17.25;92.67
70421;SHT31;57848;51.938;15.520;2023-09-19T05:47:50;17.27;92.69
70421;SHT31;57848;51.938;15.520;2023-09-19T05:50:16;17.31;92.78
70421;SHT31;57848;51.938;15.520;2023-09-19T05:52:42;17.31;92.58
70421;SHT31;57848;51.938;15.520;2023-09-19T05:55:09;17.31;92.07
70421;SHT31;57848;51.938;15.520;2023-09-19T05:57:36;17.31;92.27
70421;SHT31;57848;51.938;15.520;2023-09-19T06:00:05;17.28;92.44
70421;SHT31;57848;51.938;15.520;2023-09-19T06:02:37;17.36;92.62
70421;SHT31;57848;51.938;15.520;2023-09-19T06:05:04;17.34;92.70
70421;SHT31;57848;51.938;15.520;2023-09-19T06:07:31;17.36;92.70
70421;SHT31;57848;51.938;15.520;2023-09-19T06:10:02;17.46;91.89
70421;SHT31;57848;51.938;15.520;2023-09-19T06:12:30;17.50;91.95
70421;SHT31;57848;51.938;15.520;2023-09-19T06:14:59;17.49;91.38
70421;SHT31;57848;51.938;15.520;2023-09-19T06:17:24;17.52;92.20
70421;SHT31;57848;51.938;15.520;2023-09-19T06:19:49;17.61;91.72
70421;SHT31;57848;51.938;15.520;2023-09-19T06:22:16;17.67;91.04
70421;SHT31;57848;51.938;15.520;2023-09-19T06:24:44;17.72;91.24
70421;SHT31;57848;51.938;15.520;2023-09-19T06:27:09;17.80;90.87
70421;SHT31;57848;51.938;15.520;2023-09-19T06:29:34;17.76;90.86
70421;SHT31;57848;51.938;15.520;2023-09-19T06:32:06;17.72;90.80
70421;SHT31;57848;51.938;15.520;2023-09-19T06:34:32;17.73;91.37
70421;SHT31;57848;51.938;15.520;2023-09-19T06:36:58;17.76;90.75
70421;SHT31;57848;51.938;15.520;2023-09-19T06:39:23;17.76;91.06
70421;SHT31;57848;51.938;15.520;2023-09-19T06:41:51;17.70;90.82
70421;SHT31;57848;51.938;15.520;2023-09-19T06:44:18;17.80;90.91
70421;SHT31;57848;51.938;15.520;2023-09-19T06:46:46;17.80;90.57
70421;SHT31;57848;51.938;15.520;2023-09-19T06:49:15;17.77;90.62
70421;SHT31;57848;51.938;15.520;2023-09-19T06:51:40;17.83;90.23
70421;SHT31;57848;51.938;15.520;2023-09-19T06:54:07;17.77;89.63
70421;SHT31;57848;51.938;15.520;2023-09-19T06:56:32;17.86;89.86
70421;SHT31;57848;51.938;15.520;2023-09-19T06:58:58;17.90;89.91
70421;SHT31;57848;51.938;15.520;2023-09-19T07:01:23;17.90;89.92
70421;SHT31;57848;51.938;15.520;2023-09-19T07:03:49;17.91;90.28
70421;SHT31;57848;51.938;15.520;2023-09-19T07:06:14;17.91;89.34
70421;SHT31;57848;51.938;15.520;2023-09-19T07:08:40;17.97;88.41
70421;SHT31;57848;51.938;15.520;2023-09-19T07:11:05;18.01;88.85
70421;SHT31;57848;51.938;15.520;2023-09-19T07:13:31;18.06;89.27
70421;SHT31;57848;51.938;15.520;2023-09-19T07:15:58;18.04;89.17
70421;SHT31;57848;51.938;15.520;2023-09-19T07:18:25;18.18;88.98
70421;SHT31;57848;51.938;15.520;2023-09-19T07:20:50;18.16;89.32
70421;SHT31;57848;51.938;15.520;2023-09-19T07:23:20;18.18;88.95
70421;SHT31;57848;51.938;15.520;2023-09-19T07:25:48;18.16;89.30
70421;SHT31;57848;51.938;15.520;2023-09-19T07:28:14;18.21;89.90
70421;SHT31;57848;51.938;15.520;2023-09-19T07:30:39;18.24;88.93
70421;SHT31;57848;51.938;15.520;2023-09-19T07:33:07;18.27;89.21
70421;SHT31;57848;51.938;15.520;2023-09-19T07:35:32;18.24;88.59
70421;SHT31;57848;51.938;15.520;2023-09-19T07:37:58;18.30;88.82
70421;SHT31;57848;51.938;15.520;2023-09-19T07:40:26;18.34;87.07
70421;SHT31;57848;51.938;15.520;2023-09-19T07:42:56;18.37;87.68
70421;SHT31;57848;51.938;15.520;2023-09-19T07:45:22;18.35;87.18
70421;SHT31;57848;51.938;15.520;2023-09-19T07:47:50;18.30;87.09
70421;SHT31;57848;51.938;15.520;2023-09-19T07:50:16;18.27;86.38
70421;SHT31;57848;51.938;15.520;2023-09-19T07:52:44;18.27;85.93
70421;SHT31;57848;51.938;15.520;2023-09-19T07:55:10;18.27;86.32
70421;SHT31;57848;51.938;15.520;2023-09-19T07:57:37;18.16;86.58
70421;SHT31;57848;51.938;15.520;2023-09-19T08:00:03;18.30;86.81
70421;SHT31;57848;51.938;15.520;2023-09-19T08:02:37;18.28;86.65
70421;SHT31;57848;51.938;15.520;2023-09-19T08:05:07;18.35;86.06
70421;SHT31;57848;51.938;15.520;2023-09-19T08:07:40;18.52;85.70
70421;SHT31;57848;51.938;15.520;2023-09-19T08:10:07;18.52;85.78
70421;SHT31;57848;51.938;15.520;2023-09-19T08:12:40;18.62;82.41
70421;SHT31;57848;51.938;15.520;2023-09-19T08:15:13;18.75;83.44
70421;SHT31;57848;51.938;15.520;2023-09-19T08:17:39;18.76;83.50
70421;SHT31;57848;51.938;15.520;2023-09-19T08:20:05;18.92;82.23
70421;SHT31;57848;51.938;15.520;2023-09-19T08:22:31;19.17;83.00
70421;SHT31;57848;51.938;15.520;2023-09-19T08:24:57;19.22;80.44
70421;SHT31;57848;51.938;15.520;2023-09-19T08:27:23;19.41;80.18
70421;SHT31;57848;51.938;15.520;2023-09-19T08:29:52;19.31;78.50
70421;SHT31;57848;51.938;15.520;2023-09-19T08:32:18;19.34;79.51
70421;SHT31;57848;51.938;15.520;2023-09-19T08:34:49;19.38;80.03
70421;SHT31;57848;51.938;15.520;2023-09-19T08:37:14;19.26;78.42
70421;SHT31;57848;51.938;15.520;2023-09-19T08:39:42;19.37;78.01
70421;SHT31;57848;51.938;15.520;2023-09-19T08:42:08;19.37;77.25
70421;SHT31;57848;51.938;15.520;2023-09-19T08:44:36;19.31;78.02
70421;SHT31;57848;51.938;15.520;2023-09-19T08:47:34;19.49;77.66
70421;SHT31;57848;51.938;15.520;2023-09-19T08:50:19;19.41;76.81
70421;SHT31;57848;51.938;15.520;2023-09-19T08:52:51;19.57;76.69
70421;SHT31;57848;51.938;15.520;2023-09-19T08:55:20;19.51;76.59
70421;SHT31;57848;51.938;15.520;2023-09-19T08:57:52;19.51;77.65
70421;SHT31;57848;51.938;15.520;2023-09-19T09:00:24;19.47;77.49
70421;SHT31;57848;51.938;15.520;2023-09-19T09:02:54;19.56;78.44
70421;SHT31;57848;51.938;15.520;2023-09-19T09:05:20;19.50;76.84
70421;SHT31;57848;51.938;15.520;2023-09-19T09:07:49;19.58;77.53
70421;SHT31;57848;51.938;15.520;2023-09-19T09:10:18;19.77;75.63
70421;SHT31;57848;51.938;15.520;2023-09-19T09:12:49;19.85;75.49
70421;SHT31;57848;51.938;15.520;2023-09-19T09:15:18;19.86;76.25
70421;SHT31;57848;51.938;15.520;2023-09-19T09:17:47;19.94;76.16
70421;SHT31;57848;51.938;15.520;2023-09-19T09:20:13;19.94;75.49
70421;SHT31;57848;51.938;15.520;2023-09-19T09:22:38;19.78;74.46
70421;SHT31;57848;51.938;15.520;2023-09-19T09:25:09;19.64;73.76
70421;SHT31;57848;51.938;15.520;2023-09-19T09:27:34;19.53;74.45
70421;SHT31;57848;51.938;15.520;2023-09-19T09:30:00;19.30;73.97
70421;SHT31;57848;51.938;15.520;2023-09-19T09:32:29;19.22;74.04
70421;SHT31;57848;51.938;15.520;2023-09-19T09:34:59;19.23;74.54
70421;SHT31;57848;51.938;15.520;2023-09-19T09:37:26;19.37;73.73
70421;SHT31;57848;51.938;15.520;2023-09-19T09:39:56;19.46;74.59
70421;SHT31;57848;51.938;15.520;2023-09-19T09:42:34;19.38;74.14
70421;SHT31;57848;51.938;15.520;2023-09-19T09:45:19;19.37;74.46
70421;SHT31;57848;51.938;15.520;2023-09-19T09:47:53;19.34;73.89
70421;SHT31;57848;51.938;15.520;2023-09-19T09:50:35;19.28;74.29
70421;SHT31;57848;51.938;15.520;2023-09-19T09:58:22;19.16;75.06
70421;SHT31;57848;51.938;15.520;2023-09-19T10:00:57;20.73;71.63
70421;SHT31;57848;51.938;15.520;2023-09-19T10:03:37;21.81;67.44
70421;SHT31;57848;51.938;15.520;2023-09-19T10:06:12;21.79;68.05
70421;SHT31;57848;51.938;15.520;2023-09-19T10:09:17;21.23;68.84
70421;SHT31;57848;51.938;15.520;2023-09-19T10:11:46;21.93;67.52
70421;SHT31;57848;51.938;15.520;2023-09-19T10:14:15;23.75;63.58
70421;SHT31;57848;51.938;15.520;2023-09-19T10:16:48;25.17;59.97
70421;SHT31;57848;51.938;15.520;2023-09-19T10:19:20;26.36;55.89
70421;SHT31;57848;51.938;15.520;2023-09-19T10:21:48;26.61;55.51
70421;SHT31;57848;51.938;15.520;2023-09-19T10:24:15;25.52;58.31
70421;SHT31;57848;51.938;15.520;2023-09-19T10:26:43;25.64;58.29
70421;SHT31;57848;51.938;15.520;2023-09-19T10:29:13;24.87;59.51
70421;SHT31;57848;51.938;15.520;2023-09-19T10:31:47;25.92;57.29
70421;SHT31;57848;51.938;15.520;2023-09-19T10:34:17;26.15;55.97
70421;SHT31;57848;51.938;15.520;2023-09-19T10:36:52;27.80;52.00
70421;SHT31;57848;51.938;15.520;2023-09-19T10:39:23;27.65;52.43
70421;SHT31;57848;51.938;15.520;2023-09-19T10:41:53;28.17;51.04
70421;SHT31;57848;51.938;15.520;2023-09-19T10:44:24;26.65;53.17
70421;SHT31;57848;51.938;15.520;2023-09-19T10:46:54;26.95;53.15
70421;SHT31;57848;51.938;15.520;2023-09-19T10:49:20;26.54;52.85
70421;SHT31;57848;51.938;15.520;2023-09-19T10:51:47;25.31;52.96
70421;SHT31;57848;51.938;15.520;2023-09-19T10:54:19;25.69;52.26
70421;SHT31;57848;51.938;15.520;2023-09-19T10:56:49;24.97;53.06
70421;SHT31;57848;51.938;15.520;2023-09-19T10:59:18;24.93;52.47
70421;SHT31;57848;51.938;15.520;2023-09-19T11:01:48;26.06;49.33
70421;SHT31;57848;51.938;15.520;2023-09-19T11:04:27;27.71;46.76
70421;SHT31;57848;51.938;15.520;2023-09-19T11:07:06;28.41;46.28
70421;SHT31;57848;51.938;15.520;2023-09-19T11:09:52;28.62;44.95
70421;SHT31;57848;51.938;15.520;2023-09-19T11:15:07;29.71;43.59
70421;SHT31;57848;51.938;15.520;2023-09-19T11:17:38;30.22;41.96
70421;SHT31;57848;51.938;15.520;2023-09-19T11:30:40;29.98;40.74
70421;SHT31;57848;51.938;15.520;2023-09-19T11:33:25;31.51;38.94
70421;SHT31;57848;51.938;15.520;2023-09-19T11:36:10;30.80;39.30
70421;SHT31;57848;51.938;15.520;2023-09-19T11:49:16;29.91;38.63
70421;SHT31;57848;51.938;15.520;2023-09-19T11:51:45;28.64;39.55
70421;SHT31;57848;51.938;15.520;2023-09-19T11:54:13;29.54;39.08
70421;SHT31;57848;51.938;15.520;2023-09-19T11:56:48;29.65;38.94
70421;SHT31;57848;51.938;15.520;2023-09-19T11:59:22;29.81;38.42
70421;SHT31;57848;51.938;15.520;2023-09-19T12:01:53;29.91;38.94
70421;SHT31;57848;51.938;15.520;2023-09-19T12:04:33;30.05;38.57
70421;SHT31;57848;51.938;15.520;2023-09-19T12:06:59;29.82;39.77
70421;SHT31;57848;51.938;15.520;2023-09-19T12:09:25;29.19;40.13
70421;SHT31;57848;51.938;15.520;2023-09-19T12:11:50;28.44;42.35
70421;SHT31;57848;51.938;15.520;2023-09-19T12:14:23;27.66;43.58
70421;SHT31;57848;51.938;15.520;2023-09-19T12:16:55;27.11;44.84
70421;SHT31;57848;51.938;15.520;2023-09-19T12:19:21;26.63;45.94
70421;SHT31;57848;51.938;15.520;2023-09-19T12:22:02;26.23;47.04
70421;SHT31;57848;51.938;15.520;2023-09-19T12:24:32;25.84;47.31
70421;SHT31;57848;51.938;15.520;2023-09-19T12:27:04;25.48;48.10
70421;SHT31;57848;51.938;15.520;2023-09-19T12:29:31;25.13;49.21
70421;SHT31;57848;51.938;15.520;2023-09-19T12:31:58;24.94;49.91
70421;SHT31;57848;51.938;15.520;2023-09-19T12:34:24;24.93;49.62
70421;SHT31;57848;51.938;15.520;2023-09-19T12:37:14;24.35;50.51
70421;SHT31;57848;51.938;15.520;2023-09-19T12:40:04;24.31;50.60
70421;SHT31;57848;51.938;15.520;2023-09-19T12:42:40;24.21;50.90
70421;SHT31;57848;51.938;15.520;2023-09-19T12:45:07;24.15;51.52
70421;SHT31;57848;51.938;15.520;2023-09-19T12:47:34;24.29;51.08
70421;SHT31;57848;51.938;15.520;2023-09-19T12:50:11;24.11;48.43
70421;SHT31;57848;51.938;15.520;2023-09-19T12:52:48;24.02;48.89
70421;SHT31;57848;51.938;15.520;2023-09-19T12:55:25;23.94;49.23
70421;SHT31;57848;51.938;15.520;2023-09-19T12:57:59;23.73;49.84
70421;SHT31;57848;51.938;15.520;2023-09-19T13:00:38;23.66;49.75
70421;SHT31;57848;51.938;15.520;2023-09-19T13:03:14;23.59;49.60
70421;SHT31;57848;51.938;15.520;2023-09-19T13:08:39;23.45;50.19
70421;SHT31;57848;51.938;15.520;2023-09-19T13:14:18;23.33;48.98
70421;SHT31;57848;51.938;15.520;2023-09-19T13:17:04;23.24;49.95
70421;SHT31;57848;51.938;15.520;2023-09-19T13:19:41;23.36;48.81
70421;SHT31;57848;51.938;15.520;2023-09-19T13:25:04;23.67;49.00
70421;SHT31;57848;51.938;15.520;2023-09-19T13:27:29;23.47;48.04
70421;SHT31;57848;51.938;15.520;2023-09-19T13:29:54;23.63;48.93
70421;SHT31;57848;51.938;15.520;2023-09-19T13:32:20;23.40;47.41
70421;SHT31;57848;51.938;15.520;2023-09-19T13:34:45;23.29;45.93
70421;SHT31;57848;51.938;15.520;2023-09-19T13:37:11;23.06;47.14
70421;SHT31;57848;51.938;15.520;2023-09-19T13:39:38;22.98;46.56
70421;SHT31;57848;51.938;15.520;2023-09-19T13:42:08;22.94;47.35
70421;SHT31;57848;51.938;15.520;2023-09-19T13:44:37;22.82;47.93
70421;SHT31;57848;51.938;15.520;2023-09-19T13:47:03;22.67;48.38
70421;SHT31;57848;51.938;15.520;2023-09-19T13:49:34;22.82;48.64
70421;SHT31;57848;51.938;15.520;2023-09-19T13:52:00;22.87;48.84
70421;SHT31;57848;51.938;15.520;2023-09-19T13:54:28;22.99;49.87
70421;SHT31;57848;51.938;15.520;2023-09-19T13:56:53;22.99;48.88
70421;SHT31;57848;51.938;15.520;2023-09-19T13:59:19;23.02;49.15
70421;SHT31;57848;51.938;15.520;2023-09-19T14:01:46;22.92;50.56
70421;SHT31;57848;51.938;15.520;2023-09-19T14:04:11;22.90;48.21
70421;SHT31;57848;51.938;15.520;2023-09-19T14:06:37;22.79;47.58
70421;SHT31;57848;51.938;15.520;2023-09-19T14:09:03;22.45;47.82
70421;SHT31;57848;51.938;15.520;2023-09-19T14:11:29;22.33;48.59
70421;SHT31;57848;51.938;15.520;2023-09-19T14:13:54;22.31;49.10
70421;SHT31;57848;51.938;15.520;2023-09-19T14:16:20;22.09;49.48
70421;SHT31;57848;51.938;15.520;2023-09-19T14:18:47;22.10;49.08
70421;SHT31;57848;51.938;15.520;2023-09-19T14:21:13;22.16;49.23
70421;SHT31;57848;51.938;15.520;2023-09-19T14:23:39;22.25;51.86
70421;SHT31;57848;51.938;15.520;2023-09-19T14:26:06;22.33;49.56
70421;SHT31;57848;51.938;15.520;2023-09-19T14:28:32;22.27;49.19
70421;SHT31;57848;51.938;15.520;2023-09-19T14:31:04;22.25;49.80
70421;SHT31;57848;51.938;15.520;2023-09-19T14:33:30;22.14;49.51
70421;SHT31;57848;51.938;15.520;2023-09-19T14:35:56;22.16;50.36
70421;SHT31;57848;51.938;15.520;2023-09-19T14:38:21;22.14;50.79
70421;SHT31;57848;51.938;15.520;2023-09-19T14:40:47;22.07;50.88
70421;SHT31;57848;51.938;15.520;2023-09-19T14:43:15;22.00;50.63
70421;SHT31;57848;51.938;15.520;2023-09-19T14:45:40;21.92;50.83
70421;SHT31;57848;51.938;15.520;2023-09-19T14:48:06;21.99;51.33
70421;SHT31;57848;51.938;15.520;2023-09-19T14:50:32;22.00;51.21
70421;SHT31;57848;51.938;15.520;2023-09-19T14:52:58;21.85;51.76
70421;SHT31;57848;51.938;15.520;2023-09-19T14:55:27;21.85;51.21
70421;SHT31;57848;51.938;15.520;2023-09-19T14:57:54;21.90;51.33
70421;SHT31;57848;51.938;15.520;2023-09-19T15:00:21;21.81;50.85
70421;SHT31;57848;51.938;15.520;2023-09-19T15:02:49;21.66;51.09
70421;SHT31;57848;51.938;15.520;2023-09-19T15:05:16;21.55;51.17
70421;SHT31;57848;51.938;15.520;2023-09-19T15:07:41;21.58;51.99
70421;SHT31;57848;51.938;15.520;2023-09-19T15:10:07;21.52;52.53
70421;SHT31;57848;51.938;15.520;2023-09-19T15:12:36;21.51;52.75
70421;SHT31;57848;51.938;15.520;2023-09-19T15:15:04;21.58;53.95
70421;SHT31;57848;51.938;15.520;2023-09-19T15:17:30;21.49;53.79
70421;SHT31;57848;51.938;15.520;2023-09-19T15:19:56;21.51;52.51
70421;SHT31;57848;51.938;15.520;2023-09-19T15:22:21;21.39;53.10
70421;SHT31;57848;51.938;15.520;2023-09-19T15:24:47;21.42;53.37
70421;SHT31;57848;51.938;15.520;2023-09-19T15:27:13;21.38;53.50
70421;SHT31;57848;51.938;15.520;2023-09-19T15:29:38;21.27;53.76
70421;SHT31;57848;51.938;15.520;2023-09-19T15:32:04;21.35;53.28
70421;SHT31;57848;51.938;15.520;2023-09-19T15:34:29;21.32;53.98
70421;SHT31;57848;51.938;15.520;2023-09-19T15:36:56;21.28;53.91
70421;SHT31;57848;51.938;15.520;2023-09-19T15:39:21;21.12;54.76
70421;SHT31;57848;51.938;15.520;2023-09-19T15:41:47;20.98;55.58
70421;SHT31;57848;51.938;15.520;2023-09-19T15:44:19;21.01;54.88
70421;SHT31;57848;51.938;15.520;2023-09-19T15:46:45;20.94;55.74
70421;SHT31;57848;51.938;15.520;2023-09-19T15:49:11;20.98;55.48
70421;SHT31;57848;51.938;15.520;2023-09-19T15:51:37;20.93;55.61
70421;SHT31;57848;51.938;15.520;2023-09-19T15:54:07;20.81;56.34
70421;SHT31;57848;51.938;15.520;2023-09-19T15:56:33;20.74;57.13
70421;SHT31;57848;51.938;15.520;2023-09-19T15:59:00;20.62;57.10
70421;SHT31;57848;51.938;15.520;2023-09-19T16:01:25;20.64;56.50
70421;SHT31;57848;51.938;15.520;2023-09-19T16:03:53;20.66;56.47
70421;SHT31;57848;51.938;15.520;2023-09-19T16:06:31;20.55;56.88
70421;SHT31;57848;51.938;15.520;2023-09-19T16:08:58;20.45;57.02
70421;SHT31;57848;51.938;15.520;2023-09-19T16:11:26;20.45;57.64